createdAt,value
2023-03-25T00:00:33.105Z,72.00
2023-03-25T00:03:04.631Z,72.64
2023-03-25T00:05:34.721Z,72.19
2023-03-25T00:08:04.678Z,72.68
2023-03-25T00:10:34.926Z,71.98
2023-03-25T00:13:06.071Z,72.07
2023-03-25T00:15:38.607Z,71.19
2023-03-25T00:18:08.765Z,70.84
2023-03-25T00:20:40.987Z,70.77
2023-03-25T00:23:11.527Z,70.58
2023-03-25T00:25:42.069Z,70.35
2023-03-25T00:28:12.095Z,69.93
2023-03-25T00:30:46.874Z,69.97
2023-03-25T00:33:18.374Z,70.25
2023-03-25T00:35:49.728Z,70.96
2023-03-25T00:38:19.971Z,71.60
2023-03-25T00:40:49.936Z,72.18
2023-03-25T00:43:19.886Z,72.60
2023-03-25T00:45:52.674Z,72.45
2023-03-25T00:48:22.962Z,71.89
2023-03-25T00:50:52.881Z,71.60
2023-03-25T00:53:22.822Z,70.86
2023-03-25T00:55:52.832Z,71.19
2023-03-25T00:58:22.876Z,70.80
2023-03-25T01:00:56.705Z,70.85
2023-03-25T01:03:29.223Z,70.39
2023-03-25T01:05:59.272Z,70.11
2023-03-25T01:08:29.834Z,70.58
2023-03-25T01:11:02.241Z,70.26
2023-03-25T01:13:32.240Z,70.09
2023-03-25T01:16:09.167Z,68.59
2023-03-25T01:18:39.265Z,68.22
2023-03-25T01:21:10.703Z,68.44
2023-03-25T01:23:41.178Z,67.93
2023-03-25T01:26:13.245Z,67.59
2023-03-25T01:28:44.737Z,67.46
2023-03-25T01:31:20.214Z,67.57
2023-03-25T01:33:50.271Z,69.40
2023-03-25T01:36:21.488Z,70.69
2023-03-25T01:38:51.678Z,72.47
2023-03-25T01:41:22.207Z,75.52
2023-03-25T01:44:11.143Z,75.89
2023-03-25T01:46:45.493Z,76.92
2023-03-25T01:49:23.987Z,77.34
2023-03-25T01:51:59.556Z,76.63
2023-03-25T01:54:31.103Z,75.86
2023-03-25T01:57:01.802Z,75.39
2023-03-25T01:59:32.674Z,76.45
2023-03-25T02:02:09.398Z,76.06
2023-03-25T02:04:50.679Z,76.01
2023-03-25T02:07:21.576Z,75.96
2023-03-25T02:09:51.958Z,76.28
2023-03-25T02:12:21.910Z,75.26
2023-03-25T02:14:53.106Z,75.28
2023-03-25T02:17:40.802Z,76.38
2023-03-25T02:20:54.433Z,76.05
2023-03-25T02:24:03.178Z,76.04
2023-03-25T02:27:14.530Z,75.73
2023-03-25T02:30:14.938Z,75.86
2023-03-25T02:33:17.665Z,75.89
2023-03-25T02:36:18.082Z,75.44
2023-03-25T02:38:56.013Z,75.50
2023-03-25T02:41:33.005Z,75.56
2023-03-25T02:44:11.587Z,75.27
2023-03-25T02:46:50.613Z,74.63
2023-03-25T02:49:27.334Z,75.28
2023-03-25T02:52:04.888Z,76.14
2023-03-25T02:54:42.392Z,76.30
2023-03-25T02:57:16.963Z,76.08
2023-03-25T02:59:50.144Z,75.91
2023-03-25T03:02:20.498Z,76.68
2023-03-25T03:04:52.569Z,76.70
2023-03-25T03:07:30.067Z,76.58
2023-03-25T03:10:19.613Z,77.33
2023-03-25T03:13:05.399Z,76.48
2023-03-25T03:15:45.608Z,76.75
2023-03-25T03:18:34.645Z,76.49
2023-03-25T03:21:14.878Z,76.57
2023-03-25T03:23:58.546Z,76.04
2023-03-25T03:26:41.890Z,75.72
2023-03-25T03:29:19.553Z,74.47
2023-03-25T03:32:05.892Z,74.21
2023-03-25T03:34:45.199Z,73.41
2023-03-25T03:37:18.923Z,73.20
2023-03-25T03:39:52.022Z,73.46
2023-03-25T03:42:30.557Z,72.71
2023-03-25T03:45:07.139Z,72.04
2023-03-25T03:47:44.286Z,72.12
2023-03-25T03:50:21.177Z,72.23
2023-03-25T03:53:00.240Z,72.26
2023-03-25T03:55:39.311Z,72.14
2023-03-25T03:58:22.539Z,72.00
2023-03-25T04:01:04.622Z,71.88
2023-03-25T04:03:42.240Z,71.78
2023-03-25T04:06:24.652Z,71.93
2023-03-25T04:09:05.749Z,72.08
2023-03-25T04:11:45.874Z,71.93
2023-03-25T04:14:19.539Z,71.28
2023-03-25T04:16:49.646Z,70.88
2023-03-25T04:19:20.627Z,70.14
2023-03-25T04:21:51.519Z,69.79
2023-03-25T04:24:21.703Z,69.40
2023-03-25T04:26:53.269Z,69.37
2023-03-25T04:29:26.252Z,68.90
2023-03-25T04:31:57.827Z,68.76
2023-03-25T04:34:27.811Z,68.73
2023-03-25T04:36:58.966Z,68.54
2023-03-25T04:39:29.970Z,68.27
2023-03-25T04:42:02.023Z,68.27
2023-03-25T04:44:39.412Z,68.60
2023-03-25T04:47:16.419Z,68.52
2023-03-25T04:49:47.016Z,68.14
2023-03-25T04:52:17.497Z,68.39
2023-03-25T04:54:47.568Z,68.12
2023-03-25T04:57:17.619Z,67.73
2023-03-25T04:59:50.086Z,67.09
2023-03-25T05:02:20.918Z,67.30
2023-03-25T05:04:51.406Z,66.75
2023-03-25T05:07:22.045Z,66.90
2023-03-25T05:09:51.980Z,66.61
2023-03-25T05:12:21.969Z,66.76
2023-03-25T05:14:54.528Z,66.35
2023-03-25T05:17:24.493Z,66.22
2023-03-25T05:19:55.150Z,66.40
2023-03-25T05:22:25.127Z,66.32
2023-03-25T05:24:56.513Z,66.71
2023-03-25T05:27:26.399Z,66.82
2023-03-25T05:29:59.557Z,66.70
2023-03-25T05:32:33.538Z,66.20
2023-03-25T05:35:04.454Z,65.82
2023-03-25T05:37:34.417Z,65.96
2023-03-25T05:40:15.349Z,65.91
2023-03-25T05:42:47.267Z,66.02
2023-03-25T05:45:20.113Z,65.89
2023-03-25T05:47:50.142Z,66.18
2023-03-25T05:50:20.277Z,66.06
2023-03-25T05:52:52.073Z,66.20
2023-03-25T05:55:24.660Z,66.60
2023-03-25T05:57:54.907Z,66.65
2023-03-25T06:00:27.439Z,66.58
2023-03-25T06:02:59.167Z,66.95
2023-03-25T06:05:29.817Z,67.50
2023-03-25T06:07:59.854Z,67.94
2023-03-25T06:10:29.830Z,68.12
2023-03-25T06:12:59.733Z,68.63
2023-03-25T06:15:33.882Z,69.95
2023-03-25T06:18:04.368Z,68.85
2023-03-25T06:20:34.696Z,68.97
2023-03-25T06:23:04.787Z,68.24
2023-03-25T06:25:34.769Z,68.70
2023-03-25T06:28:04.680Z,68.92
2023-03-25T06:30:37.203Z,68.65
2023-03-25T06:33:07.180Z,68.43
2023-03-25T06:35:37.171Z,68.68
2023-03-25T06:38:07.179Z,69.08
2023-03-25T06:40:53.333Z,68.87
2023-03-25T06:43:23.410Z,68.96
2023-03-25T06:46:12.991Z,69.65
2023-03-25T06:49:01.611Z,69.16
2023-03-25T06:51:31.780Z,69.48
2023-03-25T06:54:01.708Z,68.96
2023-03-25T06:56:31.692Z,68.11
2023-03-25T06:59:01.624Z,68.48
2023-03-25T07:01:34.250Z,67.42
2023-03-25T07:04:04.229Z,67.29
2023-03-25T07:06:34.368Z,67.00
2023-03-25T07:09:04.326Z,67.27
2023-03-25T07:11:36.212Z,67.42
2023-03-25T07:14:06.264Z,66.60
2023-03-25T07:16:38.830Z,67.23
2023-03-25T07:19:08.766Z,67.36
2023-03-25T07:21:38.677Z,66.51
2023-03-25T07:24:09.347Z,65.07
2023-03-25T07:26:39.291Z,65.30
2023-03-25T07:29:09.390Z,66.18
2023-03-25T07:31:42.184Z,65.43
2023-03-25T07:34:12.141Z,65.38
2023-03-25T07:36:42.066Z,65.08
2023-03-25T07:39:12.072Z,65.10
2023-03-25T07:41:43.187Z,64.87
2023-03-25T07:44:23.987Z,64.16
2023-03-25T07:46:56.593Z,64.65
2023-03-25T07:49:26.676Z,63.90
2023-03-25T07:51:56.691Z,63.38
2023-03-25T07:54:26.655Z,63.69
2023-03-25T07:56:56.631Z,63.04
2023-03-25T07:59:28.839Z,63.04
2023-03-25T08:02:01.988Z,63.49
2023-03-25T08:04:32.317Z,62.47
2023-03-25T08:07:02.419Z,61.91
2023-03-25T08:09:32.371Z,62.20
2023-03-25T08:12:02.433Z,62.03
2023-03-25T08:14:32.428Z,62.80
2023-03-25T08:17:04.982Z,63.42
2023-03-25T08:19:35.155Z,64.78
2023-03-25T08:22:05.142Z,66.95
2023-03-25T08:24:35.059Z,71.27
2023-03-25T08:27:14.821Z,71.45
2023-03-25T08:29:47.231Z,70.40
2023-03-25T08:32:19.710Z,69.68
2023-03-25T08:34:49.973Z,69.32
2023-03-25T08:37:20.098Z,69.75
2023-03-25T08:39:50.558Z,69.89
2023-03-25T08:42:21.148Z,69.90
2023-03-25T08:44:51.163Z,70.61
2023-03-25T08:47:23.740Z,68.76
2023-03-25T08:49:53.738Z,69.01
2023-03-25T08:52:23.752Z,69.73
2023-03-25T08:54:53.677Z,69.15
2023-03-25T08:57:23.664Z,69.18
2023-03-25T08:59:53.852Z,67.66
2023-03-25T09:02:26.543Z,67.66
2023-03-25T09:04:56.613Z,68.77
2023-03-25T09:07:26.562Z,69.33
2023-03-25T09:09:56.513Z,67.99
2023-03-25T09:12:26.465Z,68.68
2023-03-25T09:14:56.370Z,67.80
2023-03-25T09:17:29.076Z,68.81
2023-03-25T09:19:59.633Z,70.32
2023-03-25T09:22:29.728Z,72.13
2023-03-25T09:24:59.690Z,73.64
2023-03-25T09:27:29.698Z,72.07
2023-03-25T09:29:59.640Z,73.74
2023-03-25T09:32:32.333Z,75.39
2023-03-25T09:35:02.384Z,75.35
2023-03-25T09:37:32.322Z,76.05
2023-03-25T09:40:02.539Z,75.64
2023-03-25T09:42:49.320Z,75.34
2023-03-25T09:45:31.874Z,75.56
2023-03-25T09:48:09.053Z,75.39
2023-03-25T09:50:42.138Z,75.80
2023-03-25T09:53:28.714Z,75.30
2023-03-25T09:55:59.120Z,73.78
2023-03-25T09:58:38.133Z,73.10
2023-03-25T10:01:28.164Z,71.93
2023-03-25T10:04:37.684Z,70.00
2023-03-25T10:07:26.270Z,69.14
2023-03-25T10:10:07.768Z,68.39
2023-03-25T10:12:50.511Z,67.67
2023-03-25T10:15:31.140Z,66.51
2023-03-25T10:18:23.648Z,64.38
2023-03-25T10:21:06.339Z,63.57
2023-03-25T10:23:44.951Z,63.38
2023-03-25T10:26:23.026Z,63.13
2023-03-25T10:28:59.797Z,62.41
2023-03-25T10:31:37.137Z,62.60
2023-03-25T10:34:15.689Z,61.22
2023-03-25T10:36:55.152Z,60.64
2023-03-25T10:39:25.991Z,61.67
2023-03-25T10:42:02.003Z,59.88
2023-03-25T10:44:32.994Z,60.01
2023-03-25T10:47:09.506Z,60.50
2023-03-25T10:49:42.794Z,61.07
2023-03-25T10:52:15.985Z,60.85
2023-03-25T10:54:51.931Z,58.45
2023-03-25T10:57:26.568Z,57.22
2023-03-25T11:00:06.515Z,58.31
2023-03-25T11:02:36.906Z,58.54
2023-03-25T11:05:10.413Z,60.24
2023-03-25T11:07:47.552Z,64.52
2023-03-25T11:10:21.966Z,66.45
2023-03-25T11:12:54.580Z,68.17
2023-03-25T11:15:26.639Z,64.43
2023-03-25T11:18:03.628Z,61.88
2023-03-25T11:20:40.383Z,60.48
2023-03-25T11:23:27.365Z,58.06
2023-03-25T11:26:04.470Z,59.13
2023-03-25T11:28:41.691Z,58.87
2023-03-25T11:31:19.577Z,58.21
2023-03-25T11:34:05.800Z,57.71
2023-03-25T11:36:40.543Z,56.55
2023-03-25T11:39:21.265Z,56.20
2023-03-25T11:41:51.489Z,55.93
2023-03-25T11:44:27.399Z,55.64
2023-03-25T11:47:01.426Z,54.60
2023-03-25T11:49:35.587Z,54.36
2023-03-25T11:52:10.245Z,52.75
2023-03-25T11:54:44.900Z,49.19
2023-03-25T11:57:21.357Z,51.25
2023-03-25T11:59:52.965Z,52.55
2023-03-25T12:02:28.663Z,53.14
2023-03-25T12:05:01.328Z,49.51
2023-03-25T12:07:33.467Z,43.34
2023-03-25T12:10:09.912Z,41.19
2023-03-25T12:12:52.415Z,37.70
2023-03-25T12:15:33.230Z,36.77
2023-03-25T12:18:19.551Z,35.30
2023-03-25T12:21:02.356Z,34.43
2023-03-25T12:23:49.076Z,38.19
2023-03-25T12:26:32.509Z,39.08
2023-03-25T12:29:21.740Z,30.58
2023-03-25T12:32:08.469Z,40.58
2023-03-25T12:34:53.243Z,39.56
2023-03-25T12:37:34.646Z,44.97
2023-03-25T12:40:30.656Z,43.83
2023-03-25T12:43:09.113Z,30.39
2023-03-25T12:45:52.700Z,28.88
2023-03-25T12:48:42.714Z,25.86
2023-03-25T12:51:30.122Z,26.65
2023-03-25T12:54:14.802Z,24.45
2023-03-25T12:56:58.102Z,24.05
2023-03-25T13:00:08.145Z,22.41
2023-03-25T13:03:16.828Z,22.27
2023-03-25T13:05:55.176Z,20.40
2023-03-25T13:08:33.067Z,19.95
2023-03-25T13:11:10.376Z,24.29
2023-03-25T13:13:44.225Z,24.42
2023-03-25T13:16:23.895Z,28.50
2023-03-25T13:19:04.257Z,27.91
2023-03-25T13:21:39.717Z,22.50
2023-03-25T13:24:17.719Z,33.08
2023-03-25T13:26:53.022Z,25.96
2023-03-25T13:29:34.479Z,26.01
2023-03-25T13:32:18.211Z,24.71
2023-03-25T13:34:55.190Z,22.96
2023-03-25T13:37:29.502Z,22.05
2023-03-25T13:40:13.106Z,20.44
2023-03-25T13:42:51.488Z,22.67
2023-03-25T13:45:24.128Z,19.42
2023-03-25T13:48:10.060Z,18.77
2023-03-25T13:50:41.711Z,19.99
2023-03-25T13:53:22.036Z,20.97
2023-03-25T13:56:04.136Z,22.81
2023-03-25T13:58:56.861Z,20.58
2023-03-25T14:01:55.013Z,26.07
2023-03-25T14:05:04.247Z,31.39
2023-03-25T14:07:53.183Z,25.58
2023-03-25T14:10:44.083Z,34.99
2023-03-25T14:13:20.786Z,31.88
2023-03-25T14:16:02.338Z,20.63
2023-03-25T14:18:33.602Z,19.47
2023-03-25T14:21:22.356Z,20.60
2023-03-25T14:24:04.707Z,19.41
2023-03-25T14:26:39.050Z,28.70
2023-03-25T14:29:17.788Z,27.93
2023-03-25T14:32:04.927Z,24.91
2023-03-25T14:34:35.548Z,25.24
2023-03-25T14:37:32.310Z,29.32
2023-03-25T14:40:10.462Z,19.04
2023-03-25T14:42:45.810Z,17.76
2023-03-25T14:45:53.747Z,19.33
2023-03-25T14:48:37.702Z,21.23
2023-03-25T14:51:35.055Z,19.82
2023-03-25T14:54:22.048Z,20.12
2023-03-25T14:56:59.607Z,20.21
2023-03-25T14:59:35.057Z,24.77
2023-03-25T15:02:18.873Z,25.38
2023-03-25T15:04:57.222Z,31.38
2023-03-25T15:07:47.189Z,24.43
2023-03-25T15:10:33.213Z,21.67
2023-03-25T15:13:08.604Z,27.91
2023-03-25T15:16:00.028Z,23.49
2023-03-25T15:19:01.448Z,24.22
2023-03-25T15:21:50.144Z,21.63
2023-03-25T15:24:29.011Z,22.68
2023-03-25T15:27:04.769Z,23.19
2023-03-25T15:29:56.108Z,21.26
2023-03-25T15:32:52.427Z,27.11
2023-03-25T15:35:58.828Z,21.69
2023-03-25T15:38:50.621Z,22.42
2023-03-25T15:41:54.739Z,24.66
2023-03-25T15:44:53.470Z,26.01
2023-03-25T15:47:59.771Z,28.32
2023-03-25T15:50:43.629Z,30.01
2023-03-25T15:53:46.237Z,32.74
2023-03-25T15:56:20.287Z,30.24
2023-03-25T15:58:58.679Z,27.81
2023-03-25T16:01:37.731Z,31.06
2023-03-25T16:04:14.044Z,31.99
2023-03-25T16:06:48.451Z,31.90
2023-03-25T16:09:27.284Z,30.16
2023-03-25T16:12:03.199Z,28.51
2023-03-25T16:14:36.203Z,31.21
2023-03-25T16:17:11.348Z,32.71
2023-03-25T16:19:46.438Z,32.63
2023-03-25T16:22:24.472Z,33.44
2023-03-25T16:24:54.880Z,31.04
2023-03-25T16:27:27.916Z,30.46
2023-03-25T16:29:58.465Z,31.76
2023-03-25T16:32:36.316Z,33.65
2023-03-25T16:35:08.264Z,34.46
2023-03-25T16:37:38.978Z,36.69
2023-03-25T16:40:11.675Z,35.31
2023-03-25T16:42:41.667Z,36.57
2023-03-25T16:45:18.776Z,37.59
2023-03-25T16:47:52.518Z,37.24
2023-03-25T16:50:24.479Z,37.47
2023-03-25T16:52:57.172Z,36.56
2023-03-25T16:55:33.505Z,35.96
2023-03-25T16:58:05.264Z,35.91
2023-03-25T17:00:45.734Z,36.39
2023-03-25T17:03:21.564Z,35.84
2023-03-25T17:06:05.438Z,34.96
2023-03-25T17:08:36.334Z,35.64
2023-03-25T17:11:06.487Z,36.86
2023-03-25T17:13:45.275Z,37.61
2023-03-25T17:16:16.753Z,38.46
2023-03-25T17:18:51.349Z,38.54
2023-03-25T17:21:28.205Z,39.16
2023-03-25T17:24:00.644Z,39.37
2023-03-25T17:26:37.686Z,39.50
2023-03-25T17:29:10.417Z,40.06
2023-03-25T17:31:42.447Z,40.51
2023-03-25T17:34:21.077Z,40.63
2023-03-25T17:36:58.924Z,41.19
2023-03-25T17:39:32.292Z,41.35
2023-03-25T17:42:04.753Z,42.63
2023-03-25T17:44:37.710Z,42.97
2023-03-25T17:47:09.903Z,43.35
2023-03-25T17:49:42.519Z,43.82
2023-03-25T17:52:12.962Z,43.88
2023-03-25T17:54:43.081Z,43.72
2023-03-25T17:57:19.064Z,43.23
2023-03-25T17:59:51.300Z,43.38
2023-03-25T18:02:21.305Z,43.44
2023-03-25T18:04:53.957Z,43.70
2023-03-25T18:07:23.961Z,44.02
2023-03-25T18:09:54.696Z,44.06
2023-03-25T18:12:24.644Z,44.85
2023-03-25T18:14:54.614Z,45.25
2023-03-25T18:17:24.650Z,45.72
2023-03-25T18:19:57.240Z,46.04
2023-03-25T18:22:27.174Z,46.40
2023-03-25T18:24:58.079Z,46.79
2023-03-25T18:27:40.831Z,47.23
2023-03-25T18:30:22.701Z,47.17
2023-03-25T18:32:52.779Z,47.15
2023-03-25T18:35:26.606Z,47.50
2023-03-25T18:37:57.591Z,47.39
2023-03-25T18:40:30.924Z,48.18
2023-03-25T18:43:01.251Z,48.40
2023-03-25T18:45:31.886Z,48.75
2023-03-25T18:48:02.029Z,48.82
2023-03-25T18:50:36.715Z,49.19
2023-03-25T18:53:07.484Z,50.02
2023-03-25T18:55:38.589Z,50.54
2023-03-25T18:58:10.389Z,51.19
2023-03-25T19:00:43.227Z,51.31
2023-03-25T19:03:14.459Z,51.28
2023-03-25T19:05:48.722Z,51.85
2023-03-25T19:08:21.358Z,51.37
2023-03-25T19:10:57.394Z,51.50
2023-03-25T19:13:32.292Z,52.13
2023-03-25T19:16:02.189Z,52.20
2023-03-25T19:18:35.564Z,52.39
2023-03-25T19:21:08.535Z,52.41
2023-03-25T19:23:38.534Z,52.71
2023-03-25T19:26:08.785Z,53.54
2023-03-25T19:28:38.750Z,53.71
2023-03-25T19:31:08.859Z,54.15
2023-03-25T19:33:38.950Z,54.25
2023-03-25T19:36:19.172Z,54.63
2023-03-25T19:38:49.369Z,54.90
2023-03-25T19:41:19.504Z,54.74
2023-03-25T19:43:49.519Z,54.45
2023-03-25T19:46:19.729Z,54.71
2023-03-25T19:48:49.736Z,55.33
2023-03-25T19:51:22.299Z,55.60
2023-03-25T19:53:52.288Z,54.71
2023-03-25T19:56:22.732Z,55.68
2023-03-25T19:58:52.774Z,55.64
2023-03-25T20:01:22.883Z,55.49
2023-03-25T20:03:53.722Z,56.04
2023-03-25T20:06:26.472Z,55.17
2023-03-25T20:08:56.550Z,55.71
2023-03-25T20:11:26.605Z,55.74
2023-03-25T20:13:56.659Z,56.00
2023-03-25T20:16:28.447Z,56.20
2023-03-25T20:18:58.482Z,56.17
2023-03-25T20:21:31.213Z,56.39
2023-03-25T20:24:01.333Z,56.39
2023-03-25T20:26:31.442Z,56.18
2023-03-25T20:29:01.625Z,56.50
2023-03-25T20:31:33.464Z,56.21
2023-03-25T20:34:04.770Z,56.95
2023-03-25T20:36:37.357Z,56.54
2023-03-25T20:39:07.997Z,56.30
2023-03-25T20:41:37.954Z,57.76
2023-03-25T20:44:08.347Z,56.41
2023-03-25T20:46:38.439Z,57.01
2023-03-25T20:49:10.034Z,57.26
2023-03-25T20:51:43.553Z,56.75
2023-03-25T20:54:15.257Z,56.27
2023-03-25T20:56:46.070Z,56.53
2023-03-25T20:59:18.095Z,57.18
2023-03-25T21:01:50.698Z,57.92
2023-03-25T21:04:21.176Z,58.20
2023-03-25T21:06:54.394Z,57.99
2023-03-25T21:09:24.464Z,58.31
2023-03-25T21:11:54.455Z,59.08
2023-03-25T21:14:24.501Z,60.98
2023-03-25T21:16:54.737Z,60.84
2023-03-25T21:19:25.148Z,61.84
2023-03-25T21:21:58.221Z,61.97
2023-03-25T21:24:28.121Z,62.38
2023-03-25T21:26:58.121Z,62.79
2023-03-25T21:29:28.170Z,63.39
2023-03-25T21:31:58.517Z,63.96
2023-03-25T21:34:30.393Z,63.50
2023-03-25T21:37:03.721Z,63.98
2023-03-25T21:39:33.715Z,64.30
2023-03-25T21:42:10.583Z,63.79
2023-03-25T21:44:43.160Z,63.82
2023-03-25T21:47:14.569Z,64.06
2023-03-25T21:49:44.889Z,63.37
2023-03-25T21:52:18.020Z,63.90
2023-03-25T21:54:50.036Z,64.26
2023-03-25T21:57:20.548Z,65.08
2023-03-25T21:59:54.378Z,65.39
2023-03-25T22:02:28.989Z,65.59
2023-03-25T22:04:58.963Z,65.94
2023-03-25T22:07:31.603Z,66.43
2023-03-25T22:10:01.586Z,66.33
2023-03-25T22:12:31.811Z,66.58
2023-03-25T22:15:01.776Z,66.35
2023-03-25T22:17:31.903Z,66.47
2023-03-25T22:20:01.954Z,67.29
2023-03-25T22:22:34.503Z,67.02
2023-03-25T22:25:04.578Z,66.88
2023-03-25T22:27:34.539Z,67.41
2023-03-25T22:30:04.764Z,67.63
2023-03-25T22:32:37.362Z,68.00
2023-03-25T22:35:08.985Z,67.39
2023-03-25T22:37:41.999Z,67.90
2023-03-25T22:40:13.589Z,68.53
2023-03-25T22:42:43.590Z,69.01
2023-03-25T22:45:14.492Z,69.08
2023-03-25T22:47:44.572Z,68.45
2023-03-25T22:50:14.670Z,68.67
2023-03-25T22:52:47.166Z,68.66
2023-03-25T22:55:17.117Z,68.67
2023-03-25T22:57:47.280Z,69.17
2023-03-25T23:00:18.270Z,69.11
2023-03-25T23:02:50.054Z,68.50
2023-03-25T23:05:20.061Z,67.72
2023-03-25T23:07:52.577Z,68.11
2023-03-25T23:10:22.893Z,67.94
2023-03-25T23:12:53.642Z,69.01
2023-03-25T23:15:23.785Z,68.54
2023-03-25T23:17:53.898Z,69.17
2023-03-25T23:20:24.287Z,68.70
2023-03-25T23:22:56.801Z,68.77
2023-03-25T23:25:26.748Z,69.21
2023-03-25T23:27:58.276Z,68.15
2023-03-25T23:30:28.267Z,68.04
2023-03-25T23:32:58.219Z,67.96
2023-03-25T23:35:28.244Z,67.60
2023-03-25T23:38:00.814Z,67.39
2023-03-25T23:40:30.914Z,66.90
2023-03-25T23:43:01.017Z,67.43
2023-03-25T23:45:33.942Z,66.83
2023-03-25T23:48:03.974Z,67.24
2023-03-25T23:50:33.994Z,66.85
2023-03-25T23:53:06.535Z,66.86
2023-03-25T23:55:37.394Z,66.63
2023-03-25T23:58:07.420Z,66.27
